createdAt,value
2019-03-31T00:00:27.607Z,10.60
2019-03-31T00:01:08.327Z,10.60
2019-03-31T00:01:51.058Z,10.60
2019-03-31T00:02:25.588Z,10.60
2019-03-31T00:03:00.248Z,10.50
2019-03-31T00:03:34.895Z,10.50
2019-03-31T00:04:09.472Z,10.50
2019-03-31T00:04:45.142Z,10.50
2019-03-31T00:05:19.720Z,10.50
2019-03-31T00:05:54.269Z,10.50
2019-03-31T00:06:28.919Z,10.50
2019-03-31T00:07:03.440Z,10.50
2019-03-31T00:07:38.101Z,10.50
2019-03-31T00:08:12.682Z,10.50
2019-03-31T00:08:47.279Z,10.40
2019-03-31T00:09:21.836Z,10.50
2019-03-31T00:09:56.454Z,10.50
2019-03-31T00:10:31.032Z,10.40
2019-03-31T00:11:05.768Z,10.40
2019-03-31T00:11:40.361Z,10.40
2019-03-31T00:12:14.888Z,10.40
2019-03-31T00:12:49.430Z,10.40
2019-03-31T00:13:24.074Z,10.40
2019-03-31T00:13:58.741Z,10.50
2019-03-31T00:14:33.331Z,10.50
2019-03-31T00:15:08.334Z,10.50
2019-03-31T00:15:43.191Z,10.50
2019-03-31T00:16:26.131Z,10.50
2019-03-31T00:17:00.709Z,10.50
2019-03-31T00:17:35.296Z,10.50
2019-03-31T00:18:09.893Z,10.50
2019-03-31T00:18:44.492Z,10.50
2019-03-31T00:19:19.003Z,10.50
2019-03-31T00:19:53.511Z,10.60
2019-03-31T00:20:28.090Z,10.50
2019-03-31T00:21:02.618Z,10.50
2019-03-31T00:21:38.699Z,10.50
2019-03-31T00:22:13.337Z,10.50
2019-03-31T00:22:47.850Z,10.40
2019-03-31T00:23:22.414Z,10.40
2019-03-31T00:23:56.963Z,10.40
2019-03-31T00:24:31.560Z,10.40
2019-03-31T00:25:06.401Z,10.30
2019-03-31T00:25:42.643Z,10.40
2019-03-31T00:26:17.170Z,10.40
2019-03-31T00:26:51.670Z,10.40
2019-03-31T00:27:26.258Z,10.30
2019-03-31T00:28:00.790Z,10.30
2019-03-31T00:28:35.444Z,10.30
2019-03-31T00:29:10.534Z,10.30
2019-03-31T00:29:45.111Z,10.30
2019-03-31T00:30:19.781Z,10.30
2019-03-31T00:30:54.950Z,10.30
2019-03-31T00:31:29.534Z,10.20
2019-03-31T00:32:04.230Z,10.20
2019-03-31T00:32:38.965Z,10.20
2019-03-31T00:33:13.594Z,10.20
2019-03-31T00:33:48.134Z,10.20
2019-03-31T00:34:22.648Z,10.20
2019-03-31T00:34:57.233Z,10.20
2019-03-31T00:35:31.762Z,10.10
2019-03-31T00:36:06.351Z,10.10
2019-03-31T00:36:40.936Z,10.10
2019-03-31T00:37:15.462Z,10.10
2019-03-31T00:37:50.277Z,10.10
2019-03-31T00:38:24.929Z,10.10
2019-03-31T00:38:59.507Z,10.10
2019-03-31T00:39:34.044Z,10.10
2019-03-31T00:40:08.809Z,10.10
2019-03-31T00:40:43.318Z,10.10
2019-03-31T00:41:17.872Z,10.00
2019-03-31T00:41:52.465Z,10.00
2019-03-31T00:42:26.968Z,10.00
2019-03-31T00:43:01.505Z,10.00
2019-03-31T00:43:36.098Z,10.00
2019-03-31T00:44:11.584Z,10.00
2019-03-31T00:44:46.104Z,10.00
2019-03-31T00:45:20.618Z,10.00
2019-03-31T00:45:55.198Z,10.00
2019-03-31T00:46:29.722Z,10.00
2019-03-31T00:47:04.406Z,10.00
2019-03-31T00:47:38.929Z,10.00
2019-03-31T00:48:13.474Z,10.00
2019-03-31T00:48:47.997Z,10.00
2019-03-31T00:49:22.515Z,10.00
2019-03-31T00:49:57.031Z,10.00
2019-03-31T00:50:31.614Z,10.00
2019-03-31T00:51:06.146Z,10.00
2019-03-31T00:51:40.727Z,10.00
2019-03-31T00:52:15.276Z,9.90
2019-03-31T00:52:49.769Z,9.90
2019-03-31T00:53:24.286Z,9.90
2019-03-31T00:53:58.815Z,9.90
2019-03-31T00:54:33.382Z,9.90
2019-03-31T00:55:08.145Z,9.90
2019-03-31T00:55:42.647Z,9.90
2019-03-31T00:56:17.152Z,9.90
2019-03-31T00:56:51.669Z,9.90
2019-03-31T00:57:26.255Z,9.90
2019-03-31T00:58:00.828Z,9.90
2019-03-31T00:58:35.340Z,9.90
2019-03-31T00:59:09.967Z,9.90
2019-03-31T00:59:44.478Z,9.90
2019-03-31T01:00:38.645Z,9.90
2019-03-31T01:01:35.488Z,9.90
2019-03-31T01:01:59.395Z,9.90
2019-03-31T01:02:33.986Z,9.90
2019-03-31T01:03:08.503Z,9.90
2019-03-31T01:03:44.078Z,9.80
2019-03-31T01:04:20.496Z,9.80
2019-03-31T01:04:55.054Z,9.80
2019-03-31T01:05:29.562Z,9.80
2019-03-31T01:06:04.487Z,9.80
2019-03-31T01:06:39.334Z,9.80
2019-03-31T01:07:14.006Z,9.80
2019-03-31T01:07:49.333Z,9.80
2019-03-31T01:08:27.391Z,9.80
2019-03-31T01:09:04.374Z,9.80
2019-03-31T01:09:39.036Z,9.80
2019-03-31T01:10:14.106Z,9.90
2019-03-31T01:10:48.632Z,9.80
2019-03-31T01:11:24.290Z,9.80
2019-03-31T01:11:59.394Z,9.80
2019-03-31T01:12:34.130Z,9.80
2019-03-31T01:13:09.060Z,9.80
2019-03-31T01:13:44.203Z,9.80
2019-03-31T01:14:18.878Z,9.80
2019-03-31T01:14:53.390Z,9.80
2019-03-31T01:15:28.441Z,9.70
2019-03-31T01:16:03.119Z,9.70
2019-03-31T01:16:37.618Z,9.70
2019-03-31T01:17:12.628Z,9.60
2019-03-31T01:17:47.140Z,9.60
2019-03-31T01:18:21.655Z,9.60
2019-03-31T01:18:56.221Z,9.60
2019-03-31T01:19:30.846Z,9.60
2019-03-31T01:20:06.388Z,9.50
2019-03-31T01:20:41.726Z,9.50
2019-03-31T01:21:16.277Z,9.50
2019-03-31T01:21:50.801Z,9.50
2019-03-31T01:22:25.323Z,9.50
2019-03-31T01:22:59.845Z,9.50
2019-03-31T01:23:34.418Z,9.50
2019-03-31T01:24:09.244Z,9.50
2019-03-31T01:24:43.750Z,9.50
2019-03-31T01:25:19.141Z,9.50
2019-03-31T01:25:53.922Z,9.40
2019-03-31T01:26:29.410Z,9.40
2019-03-31T01:27:05.655Z,9.40
2019-03-31T01:27:40.216Z,9.40
2019-03-31T01:28:14.966Z,9.40
2019-03-31T01:28:49.823Z,9.30
2019-03-31T01:29:24.401Z,9.30
2019-03-31T01:29:58.912Z,9.30
2019-03-31T01:30:33.480Z,9.30
2019-03-31T01:31:08.823Z,9.30
2019-03-31T01:31:50.083Z,9.30
2019-03-31T01:32:19.784Z,9.30
2019-03-31T01:32:54.363Z,9.30
2019-03-31T01:33:29.472Z,9.30
2019-03-31T01:34:04.426Z,9.30
2019-03-31T01:34:38.921Z,9.30
2019-03-31T01:35:13.808Z,9.30
2019-03-31T01:35:48.301Z,9.30
2019-03-31T01:36:23.398Z,9.30
2019-03-31T01:36:58.037Z,9.40
2019-03-31T01:37:32.573Z,9.40
2019-03-31T01:38:07.088Z,9.40
2019-03-31T01:38:41.755Z,9.40
2019-03-31T01:39:16.625Z,9.40
2019-03-31T01:39:51.225Z,9.40
2019-03-31T01:40:25.986Z,9.40
2019-03-31T01:41:00.570Z,9.40
2019-03-31T01:41:35.201Z,9.40
2019-03-31T01:42:09.710Z,9.40
2019-03-31T01:42:44.302Z,9.30
2019-03-31T01:43:19.157Z,9.30
2019-03-31T01:43:53.746Z,9.30
2019-03-31T01:44:28.259Z,9.40
2019-03-31T01:45:02.918Z,9.40
2019-03-31T01:45:37.425Z,9.40
2019-03-31T01:46:13.700Z,9.40
2019-03-31T01:46:48.278Z,9.40
2019-03-31T01:47:42.109Z,9.40
2019-03-31T01:48:16.712Z,9.40
2019-03-31T01:48:51.510Z,9.30
2019-03-31T01:49:26.144Z,9.30
2019-03-31T01:50:00.642Z,9.30
2019-03-31T01:50:35.175Z,9.30
2019-03-31T01:51:10.952Z,9.30
2019-03-31T01:51:45.509Z,9.20
2019-03-31T01:52:20.094Z,9.20
2019-03-31T01:52:54.628Z,9.20
2019-03-31T01:53:29.149Z,9.20
2019-03-31T01:54:03.651Z,9.30
2019-03-31T01:54:38.265Z,9.30
2019-03-31T01:55:12.849Z,9.30
2019-03-31T01:55:47.343Z,9.20
2019-03-31T01:56:22.558Z,9.30
2019-03-31T01:56:57.076Z,9.30
2019-03-31T01:57:31.589Z,9.30
2019-03-31T01:58:06.422Z,9.30
2019-03-31T01:58:41.330Z,9.30
2019-03-31T01:59:15.997Z,9.20
2019-03-31T01:59:50.635Z,9.20
2019-03-31T02:00:45.164Z,9.20
2019-03-31T02:01:20.174Z,9.20
2019-03-31T02:02:04.160Z,9.20
2019-03-31T02:02:31.495Z,9.10
2019-03-31T02:03:06.132Z,9.20
2019-03-31T02:03:40.632Z,9.20
2019-03-31T02:04:15.150Z,9.20
2019-03-31T02:04:49.668Z,9.20
2019-03-31T02:05:24.243Z,9.20
2019-03-31T02:05:58.756Z,9.10
2019-03-31T02:06:33.968Z,9.20
2019-03-31T02:07:08.551Z,9.10
2019-03-31T02:07:43.121Z,9.10
2019-03-31T02:08:17.697Z,9.10
2019-03-31T02:08:52.190Z,9.10
2019-03-31T02:09:26.716Z,9.10
2019-03-31T02:10:01.369Z,9.10
2019-03-31T02:10:36.020Z,9.20
2019-03-31T02:11:10.547Z,9.20
2019-03-31T02:11:45.436Z,9.20
2019-03-31T02:12:19.982Z,9.20
2019-03-31T02:12:54.491Z,9.10
2019-03-31T02:13:29.068Z,9.20
2019-03-31T02:14:03.893Z,9.20
2019-03-31T02:14:38.474Z,9.10
2019-03-31T02:15:13.167Z,9.10
2019-03-31T02:15:48.080Z,9.10
2019-03-31T02:16:22.915Z,9.10
2019-03-31T02:16:58.445Z,9.20
2019-03-31T02:17:32.981Z,9.20
2019-03-31T02:18:07.557Z,9.20
2019-03-31T02:18:42.144Z,9.10
2019-03-31T02:19:16.723Z,9.20
2019-03-31T02:19:51.302Z,9.10
2019-03-31T02:20:25.881Z,9.10
2019-03-31T02:21:00.467Z,9.20
2019-03-31T02:21:35.452Z,9.20
2019-03-31T02:22:09.976Z,9.10
2019-03-31T02:22:44.551Z,9.10
2019-03-31T02:23:19.053Z,9.10
2019-03-31T02:23:53.539Z,9.10
2019-03-31T02:24:28.970Z,9.10
2019-03-31T02:25:03.649Z,9.10
2019-03-31T02:25:38.164Z,9.10
2019-03-31T02:26:12.757Z,9.10
2019-03-31T02:26:47.326Z,9.10
2019-03-31T02:27:21.825Z,9.00
2019-03-31T02:27:56.405Z,9.10
2019-03-31T02:28:31.984Z,9.00
2019-03-31T02:29:06.845Z,9.00
2019-03-31T02:29:41.353Z,9.00
2019-03-31T02:30:16.777Z,9.00
2019-03-31T02:30:51.520Z,9.00
2019-03-31T02:31:26.093Z,9.00
2019-03-31T02:32:00.667Z,9.00
2019-03-31T02:32:35.196Z,9.00
2019-03-31T02:33:09.774Z,9.00
2019-03-31T02:33:44.383Z,8.90
2019-03-31T02:34:18.900Z,9.00
2019-03-31T02:34:53.402Z,8.90
2019-03-31T02:35:27.906Z,8.90
2019-03-31T02:36:02.926Z,8.90
2019-03-31T02:36:37.580Z,8.90
2019-03-31T02:37:12.120Z,8.90
2019-03-31T02:37:46.697Z,8.90
2019-03-31T02:38:21.282Z,8.90
2019-03-31T02:38:55.778Z,8.90
2019-03-31T02:39:30.375Z,8.90
2019-03-31T02:40:06.890Z,8.90
2019-03-31T02:40:41.443Z,8.90
2019-03-31T02:41:16.005Z,8.90
2019-03-31T02:41:50.503Z,8.90
2019-03-31T02:42:25.187Z,8.90
2019-03-31T02:42:59.816Z,8.90
2019-03-31T02:43:34.367Z,8.90
2019-03-31T02:44:09.036Z,8.90
2019-03-31T02:44:43.618Z,8.90
2019-03-31T02:45:18.212Z,8.90
2019-03-31T02:45:52.792Z,8.90
2019-03-31T02:46:27.360Z,8.90
2019-03-31T02:47:01.982Z,8.90
2019-03-31T02:47:36.644Z,8.80
2019-03-31T02:48:11.223Z,8.90
2019-03-31T02:48:45.770Z,8.90
2019-03-31T02:49:20.315Z,8.90
2019-03-31T02:49:54.915Z,8.90
2019-03-31T02:50:47.317Z,8.90
2019-03-31T02:51:21.881Z,8.90
2019-03-31T02:51:56.393Z,8.90
2019-03-31T02:52:30.973Z,8.90
2019-03-31T02:53:06.538Z,8.90
2019-03-31T02:53:41.386Z,8.90
2019-03-31T02:54:15.911Z,9.00
2019-03-31T02:54:50.485Z,9.00
2019-03-31T02:55:25.193Z,9.00
2019-03-31T02:56:00.035Z,8.90
2019-03-31T02:56:35.498Z,9.00
2019-03-31T02:57:10.333Z,8.90
2019-03-31T02:57:45.069Z,8.90
2019-03-31T02:58:20.313Z,8.90
2019-03-31T02:58:55.364Z,8.90
2019-03-31T02:59:32.189Z,8.90
2019-03-31T03:00:07.598Z,8.90
2019-03-31T03:00:42.621Z,8.90
2019-03-31T03:01:17.271Z,8.80
2019-03-31T03:01:54.422Z,8.90
2019-03-31T03:02:41.682Z,8.90
2019-03-31T03:03:07.924Z,8.80
2019-03-31T03:03:42.887Z,8.80
2019-03-31T03:04:19.916Z,8.80
2019-03-31T03:04:55.086Z,8.80
2019-03-31T03:05:32.091Z,8.80
2019-03-31T03:06:08.802Z,8.80
2019-03-31T03:06:43.780Z,8.80
2019-03-31T03:07:19.812Z,8.90
2019-03-31T03:07:55.445Z,8.90
2019-03-31T03:08:33.223Z,8.90
2019-03-31T03:09:07.784Z,8.90
2019-03-31T03:09:44.431Z,8.90
2019-03-31T03:10:21.445Z,8.90
2019-03-31T03:10:58.665Z,8.90
2019-03-31T03:11:34.794Z,8.90
2019-03-31T03:12:11.148Z,8.90
2019-03-31T03:12:47.804Z,8.90
2019-03-31T03:13:24.611Z,8.90
2019-03-31T03:14:02.571Z,8.90
2019-03-31T03:14:38.573Z,8.90
2019-03-31T03:15:16.181Z,9.00
2019-03-31T03:16:08.725Z,9.00
2019-03-31T03:16:43.412Z,8.90
2019-03-31T03:17:17.920Z,8.90
2019-03-31T03:17:52.492Z,8.90
2019-03-31T03:18:27.102Z,8.90
2019-03-31T03:19:01.678Z,8.90
2019-03-31T03:19:36.202Z,8.90
2019-03-31T03:20:10.770Z,8.90
2019-03-31T03:20:45.279Z,8.90
2019-03-31T03:21:23.778Z,8.90
2019-03-31T03:21:56.040Z,9.00
2019-03-31T03:22:30.551Z,8.90
2019-03-31T03:23:05.133Z,8.90
2019-03-31T03:23:39.628Z,8.90
2019-03-31T03:24:14.396Z,8.90
2019-03-31T03:24:48.895Z,8.90
2019-03-31T03:25:23.494Z,8.90
2019-03-31T03:25:58.054Z,8.90
2019-03-31T03:26:32.578Z,8.80
2019-03-31T03:27:07.143Z,8.80
2019-03-31T03:27:41.707Z,8.80
2019-03-31T03:28:16.292Z,8.80
2019-03-31T03:28:51.026Z,8.80
2019-03-31T03:29:25.576Z,8.80
2019-03-31T03:30:00.261Z,8.70
2019-03-31T03:30:35.260Z,8.70
2019-03-31T03:31:15.271Z,8.70
2019-03-31T03:31:46.145Z,8.70
2019-03-31T03:32:20.725Z,8.70
2019-03-31T03:33:13.839Z,8.70
2019-03-31T03:33:31.551Z,8.70
2019-03-31T03:34:06.058Z,8.70
2019-03-31T03:34:40.578Z,8.70
2019-03-31T03:35:15.170Z,8.60
2019-03-31T03:35:49.717Z,8.60
2019-03-31T03:36:24.293Z,8.60
2019-03-31T03:36:58.799Z,8.60
2019-03-31T03:37:33.367Z,8.60
2019-03-31T03:38:07.859Z,8.60
2019-03-31T03:38:42.605Z,8.60
2019-03-31T03:39:17.180Z,8.60
2019-03-31T03:39:53.126Z,8.60
2019-03-31T03:40:27.708Z,8.50
2019-03-31T03:41:02.320Z,8.50
2019-03-31T03:41:36.803Z,8.50
2019-03-31T03:42:11.290Z,8.50
2019-03-31T03:42:45.790Z,8.50
2019-03-31T03:43:20.304Z,8.50
2019-03-31T03:43:57.080Z,8.40
2019-03-31T03:44:31.171Z,8.40
2019-03-31T03:45:06.841Z,8.30
2019-03-31T03:45:41.348Z,8.30
2019-03-31T03:46:15.838Z,8.30
2019-03-31T03:46:50.347Z,8.40
2019-03-31T03:47:24.950Z,8.40
2019-03-31T03:47:59.522Z,8.40
2019-03-31T03:48:34.573Z,8.40
2019-03-31T03:49:09.313Z,8.40
2019-03-31T03:49:44.107Z,8.40
2019-03-31T03:50:18.673Z,8.30
2019-03-31T03:50:53.499Z,8.30
2019-03-31T03:51:28.439Z,8.30
2019-03-31T03:52:02.946Z,8.30
2019-03-31T03:52:37.523Z,8.20
2019-03-31T03:53:12.090Z,8.20
2019-03-31T03:53:46.584Z,8.20
2019-03-31T03:54:21.089Z,8.20
2019-03-31T03:54:55.657Z,8.20
2019-03-31T03:55:30.152Z,8.20
2019-03-31T03:56:05.757Z,8.20
2019-03-31T03:56:40.260Z,8.30
2019-03-31T03:57:14.779Z,8.30
2019-03-31T03:57:49.355Z,8.30
2019-03-31T03:58:23.866Z,8.30
2019-03-31T03:58:58.373Z,8.30
2019-03-31T03:59:32.865Z,8.40
2019-03-31T04:00:08.306Z,8.40
2019-03-31T04:00:42.884Z,8.40
2019-03-31T04:01:18.831Z,8.40
2019-03-31T04:01:53.401Z,8.40
2019-03-31T04:02:28.917Z,8.30
2019-03-31T04:03:03.418Z,8.40
2019-03-31T04:03:37.996Z,8.30
2019-03-31T04:04:12.512Z,8.30
2019-03-31T04:04:47.066Z,8.30
2019-03-31T04:05:21.632Z,8.30
2019-03-31T04:05:56.144Z,8.20
2019-03-31T04:06:30.727Z,8.20
2019-03-31T04:07:05.817Z,8.20
2019-03-31T04:07:40.307Z,8.20
2019-03-31T04:08:14.853Z,8.20
2019-03-31T04:08:49.410Z,8.20
2019-03-31T04:09:23.911Z,8.20
2019-03-31T04:09:58.505Z,8.10
2019-03-31T04:10:45.147Z,8.20
2019-03-31T04:11:22.014Z,8.20
2019-03-31T04:11:56.654Z,8.20
2019-03-31T04:12:31.232Z,8.20
2019-03-31T04:13:05.834Z,8.20
2019-03-31T04:13:40.469Z,8.20
2019-03-31T04:14:14.968Z,8.20
2019-03-31T04:14:49.547Z,8.20
2019-03-31T04:15:24.041Z,8.20
2019-03-31T04:15:58.541Z,8.20
2019-03-31T04:16:33.113Z,8.20
2019-03-31T04:17:07.750Z,8.20
2019-03-31T04:17:42.239Z,8.20
2019-03-31T04:18:16.814Z,8.20
2019-03-31T04:18:51.381Z,8.20
2019-03-31T04:19:26.114Z,8.20
2019-03-31T04:20:01.000Z,8.20
2019-03-31T04:20:39.098Z,8.20
2019-03-31T04:21:11.714Z,8.30
2019-03-31T04:21:46.278Z,8.30
2019-03-31T04:22:21.167Z,8.30
2019-03-31T04:22:55.741Z,8.30
2019-03-31T04:23:30.357Z,8.30
2019-03-31T04:24:04.930Z,8.30
2019-03-31T04:24:39.511Z,8.30
2019-03-31T04:25:14.029Z,8.30
2019-03-31T04:25:48.571Z,8.30
2019-03-31T04:26:23.159Z,8.20
2019-03-31T04:26:57.739Z,8.30
2019-03-31T04:27:32.394Z,8.30
2019-03-31T04:28:07.015Z,8.20
2019-03-31T04:28:41.544Z,8.20
2019-03-31T04:29:16.112Z,8.20
2019-03-31T04:29:50.617Z,8.20
2019-03-31T04:30:25.172Z,8.20
2019-03-31T04:30:59.664Z,8.20
2019-03-31T04:31:34.223Z,8.20
2019-03-31T04:32:08.729Z,8.20
2019-03-31T04:32:43.301Z,8.30
2019-03-31T04:33:17.897Z,8.20
2019-03-31T04:33:53.135Z,8.30
2019-03-31T04:34:28.001Z,8.30
2019-03-31T04:35:02.575Z,8.30
2019-03-31T04:35:37.228Z,8.30
2019-03-31T04:36:11.886Z,8.30
2019-03-31T04:36:46.603Z,8.30
2019-03-31T04:37:21.248Z,8.30
2019-03-31T04:37:55.759Z,8.20
2019-03-31T04:38:30.320Z,8.30
2019-03-31T04:39:06.454Z,8.30
2019-03-31T04:39:41.023Z,8.20
2019-03-31T04:40:15.597Z,8.20
2019-03-31T04:40:50.165Z,8.20
2019-03-31T04:41:24.746Z,8.20
2019-03-31T04:41:59.242Z,8.20
2019-03-31T04:42:33.731Z,8.20
2019-03-31T04:43:08.242Z,8.20
2019-03-31T04:43:42.867Z,8.20
2019-03-31T04:44:17.430Z,8.20
2019-03-31T04:44:51.918Z,8.20
2019-03-31T04:45:26.466Z,8.20
2019-03-31T04:46:00.988Z,8.20
2019-03-31T04:46:35.811Z,8.20
2019-03-31T04:47:10.325Z,8.20
2019-03-31T04:47:44.829Z,8.20
2019-03-31T04:48:19.435Z,8.20
2019-03-31T04:48:53.994Z,8.20
2019-03-31T04:49:28.496Z,8.20
2019-03-31T04:50:03.065Z,8.20
2019-03-31T04:50:37.640Z,8.20
2019-03-31T04:51:13.158Z,8.20
2019-03-31T04:51:47.719Z,8.20
2019-03-31T04:52:22.313Z,8.20
2019-03-31T04:52:56.950Z,8.20
2019-03-31T04:53:31.537Z,8.20
2019-03-31T04:54:06.100Z,8.20
2019-03-31T04:54:40.589Z,8.20
2019-03-31T04:55:15.080Z,8.20
2019-03-31T04:55:49.869Z,8.20
2019-03-31T04:56:24.471Z,8.20
2019-03-31T04:56:59.042Z,8.20
2019-03-31T04:57:33.609Z,8.20
2019-03-31T04:58:08.124Z,8.20
2019-03-31T04:58:43.107Z,8.20
2019-03-31T04:59:17.626Z,8.30
2019-03-31T04:59:52.227Z,8.20
2019-03-31T05:00:26.751Z,8.20
2019-03-31T05:01:01.315Z,8.20
2019-03-31T05:01:35.805Z,8.20
2019-03-31T05:02:10.310Z,8.20
2019-03-31T05:02:44.809Z,8.20
2019-03-31T05:03:19.490Z,8.20
2019-03-31T05:04:04.440Z,8.20
2019-03-31T05:04:30.211Z,8.20
2019-03-31T05:05:04.905Z,8.20
2019-03-31T05:05:39.414Z,8.20
2019-03-31T05:06:13.904Z,8.10
2019-03-31T05:06:48.709Z,8.10
2019-03-31T05:07:23.528Z,8.10
2019-03-31T05:07:58.098Z,8.10
2019-03-31T05:08:32.581Z,8.10
2019-03-31T05:09:07.081Z,8.20
2019-03-31T05:09:41.621Z,8.20
2019-03-31T05:10:16.123Z,8.20
2019-03-31T05:10:50.686Z,8.20
2019-03-31T05:11:25.188Z,8.20
2019-03-31T05:11:59.680Z,8.20
2019-03-31T05:12:34.181Z,8.20
2019-03-31T05:13:08.748Z,8.20
2019-03-31T05:13:43.289Z,8.20
2019-03-31T05:14:17.876Z,8.20
2019-03-31T05:14:52.394Z,8.20
2019-03-31T05:15:26.898Z,8.20
2019-03-31T05:16:01.395Z,8.20
2019-03-31T05:16:36.298Z,8.20
2019-03-31T05:17:10.813Z,8.20
2019-03-31T05:17:45.455Z,8.20
2019-03-31T05:18:19.952Z,8.20
2019-03-31T05:18:54.478Z,8.20
2019-03-31T05:19:28.981Z,8.20
2019-03-31T05:20:04.420Z,8.20
2019-03-31T05:20:38.996Z,8.20
2019-03-31T05:21:13.607Z,8.20
2019-03-31T05:21:48.101Z,8.20
2019-03-31T05:22:22.589Z,8.10
2019-03-31T05:22:57.108Z,8.10
2019-03-31T05:23:32.256Z,8.20
2019-03-31T05:24:06.828Z,8.10
2019-03-31T05:24:41.327Z,8.10
2019-03-31T05:25:15.819Z,8.10
2019-03-31T05:25:50.306Z,8.10
2019-03-31T05:26:24.807Z,8.10
2019-03-31T05:26:59.306Z,8.10
2019-03-31T05:27:33.841Z,8.10
2019-03-31T05:28:08.334Z,8.10
2019-03-31T05:28:44.325Z,8.10
2019-03-31T05:29:18.948Z,8.10
2019-03-31T05:29:53.442Z,8.10
2019-03-31T05:30:27.977Z,8.10
2019-03-31T05:31:02.551Z,8.10
2019-03-31T05:31:37.053Z,8.10
2019-03-31T05:32:11.663Z,8.10
2019-03-31T05:32:46.338Z,8.10
2019-03-31T05:33:20.901Z,8.10
2019-03-31T05:33:56.321Z,8.10
2019-03-31T05:34:30.821Z,8.10
2019-03-31T05:35:06.369Z,8.20
2019-03-31T05:35:40.876Z,8.20
2019-03-31T05:36:15.463Z,8.20
2019-03-31T05:36:50.033Z,8.20
2019-03-31T05:37:24.525Z,8.20
2019-03-31T05:37:59.042Z,8.20
2019-03-31T05:38:33.546Z,8.20
2019-03-31T05:39:08.036Z,8.20
2019-03-31T05:39:42.549Z,8.20
2019-03-31T05:40:17.047Z,8.20
2019-03-31T05:40:51.546Z,8.20
2019-03-31T05:41:26.114Z,8.20
2019-03-31T05:42:01.154Z,8.20
2019-03-31T05:42:35.657Z,8.30
2019-03-31T05:43:10.213Z,8.30
2019-03-31T05:43:44.762Z,8.30
2019-03-31T05:44:19.261Z,8.30
2019-03-31T05:44:53.836Z,8.30
2019-03-31T05:45:28.403Z,8.40
2019-03-31T05:46:02.908Z,8.40
2019-03-31T05:46:37.569Z,8.40
2019-03-31T05:47:12.145Z,8.40
2019-03-31T05:47:46.710Z,8.40
2019-03-31T05:48:21.583Z,8.40
2019-03-31T05:48:56.082Z,8.40
2019-03-31T05:49:30.633Z,8.40
2019-03-31T05:50:06.478Z,8.40
2019-03-31T05:50:41.052Z,8.40
2019-03-31T05:51:15.622Z,8.40
2019-03-31T05:51:50.106Z,8.40
2019-03-31T05:52:24.613Z,8.50
2019-03-31T05:52:59.120Z,8.50
2019-03-31T05:53:33.631Z,8.50
2019-03-31T05:54:08.213Z,8.50
2019-03-31T05:54:42.709Z,8.50
2019-03-31T05:55:18.960Z,8.60
2019-03-31T05:55:53.782Z,8.60
2019-03-31T05:56:28.921Z,8.60
2019-03-31T05:57:04.046Z,8.60
2019-03-31T05:57:38.548Z,8.60
2019-03-31T05:58:13.129Z,8.60
2019-03-31T05:58:48.104Z,8.60
2019-03-31T05:59:22.691Z,8.60
2019-03-31T05:59:57.219Z,8.70
2019-03-31T06:00:35.556Z,8.60
2019-03-31T06:01:10.038Z,8.70
2019-03-31T06:01:44.533Z,8.60
2019-03-31T06:02:19.060Z,8.60
2019-03-31T06:02:53.985Z,8.60
2019-03-31T06:03:28.486Z,8.60
2019-03-31T06:04:02.983Z,8.70
2019-03-31T06:04:37.556Z,8.70
2019-03-31T06:05:12.283Z,8.70
2019-03-31T06:05:46.796Z,8.70
2019-03-31T06:06:21.614Z,8.70
2019-03-31T06:06:56.107Z,8.70
2019-03-31T06:07:30.597Z,8.70
2019-03-31T06:08:05.167Z,8.70
2019-03-31T06:08:40.068Z,8.80
2019-03-31T06:09:14.691Z,8.70
2019-03-31T06:09:49.217Z,8.80
2019-03-31T06:10:23.736Z,8.80
2019-03-31T06:10:58.237Z,8.80
2019-03-31T06:11:32.740Z,8.80
2019-03-31T06:12:07.234Z,8.80
2019-03-31T06:12:41.813Z,8.80
2019-03-31T06:13:16.314Z,8.80
2019-03-31T06:13:50.820Z,8.70
2019-03-31T06:14:25.656Z,8.70
2019-03-31T06:15:00.426Z,8.70
2019-03-31T06:15:35.018Z,8.70
2019-03-31T06:16:09.517Z,8.70
2019-03-31T06:16:44.006Z,8.60
2019-03-31T06:17:18.512Z,8.60
2019-03-31T06:17:52.996Z,8.60
2019-03-31T06:18:27.502Z,8.60
2019-03-31T06:19:02.013Z,8.70
2019-03-31T06:19:36.577Z,8.70
2019-03-31T06:20:11.117Z,8.80
2019-03-31T06:20:45.715Z,8.80
2019-03-31T06:21:20.206Z,8.80
2019-03-31T06:21:54.738Z,8.80
2019-03-31T06:22:29.315Z,8.80
2019-03-31T06:23:23.158Z,8.90
2019-03-31T06:23:57.637Z,8.80
2019-03-31T06:24:32.136Z,8.80
2019-03-31T06:25:07.001Z,8.80
2019-03-31T06:25:41.601Z,8.80
2019-03-31T06:26:16.230Z,8.90
2019-03-31T06:26:50.945Z,8.90
2019-03-31T06:27:25.443Z,8.90
2019-03-31T06:28:00.045Z,9.00
2019-03-31T06:28:34.541Z,9.00
2019-03-31T06:29:09.186Z,9.00
2019-03-31T06:29:43.766Z,9.00
2019-03-31T06:30:18.492Z,9.10
2019-03-31T06:30:52.984Z,9.10
2019-03-31T06:31:27.516Z,9.10
2019-03-31T06:32:02.036Z,9.10
2019-03-31T06:32:36.657Z,9.20
2019-03-31T06:33:11.171Z,9.20
2019-03-31T06:33:45.701Z,9.20
2019-03-31T06:34:20.250Z,9.20
2019-03-31T06:34:54.751Z,9.30
2019-03-31T06:35:29.256Z,9.30
2019-03-31T06:36:03.827Z,9.30
2019-03-31T06:36:38.404Z,9.40
2019-03-31T06:37:12.966Z,9.40
2019-03-31T06:37:47.801Z,9.40
2019-03-31T06:38:22.297Z,9.40
2019-03-31T06:38:56.908Z,9.40
2019-03-31T06:39:34.221Z,9.50
2019-03-31T06:40:07.870Z,9.50
2019-03-31T06:40:44.345Z,9.40
2019-03-31T06:41:18.854Z,9.40
2019-03-31T06:41:53.417Z,9.50
2019-03-31T06:42:27.920Z,9.50
2019-03-31T06:43:02.525Z,9.50
2019-03-31T06:43:37.094Z,9.50
2019-03-31T06:44:11.619Z,9.50
2019-03-31T06:44:46.185Z,9.60
2019-03-31T06:45:20.678Z,9.60
2019-03-31T06:45:55.183Z,9.60
2019-03-31T06:46:29.964Z,9.70
2019-03-31T06:47:04.883Z,9.60
2019-03-31T06:47:39.435Z,9.70
2019-03-31T06:48:14.016Z,9.70
2019-03-31T06:48:48.621Z,9.70
2019-03-31T06:49:23.227Z,9.70
2019-03-31T06:49:58.241Z,9.70
2019-03-31T06:50:33.199Z,9.70
2019-03-31T06:51:07.781Z,9.80
2019-03-31T06:51:42.308Z,9.80
2019-03-31T06:52:16.894Z,9.70
2019-03-31T06:52:51.415Z,9.80
2019-03-31T06:53:25.984Z,9.80
2019-03-31T06:54:00.486Z,9.80
2019-03-31T06:54:35.057Z,9.80
2019-03-31T06:55:09.843Z,9.80
2019-03-31T06:55:44.337Z,9.80
2019-03-31T06:56:18.846Z,9.80
2019-03-31T06:56:53.442Z,9.80
2019-03-31T06:57:27.936Z,9.90
2019-03-31T06:58:02.523Z,9.90
2019-03-31T06:58:37.006Z,9.90
2019-03-31T06:59:11.509Z,9.90
2019-03-31T06:59:46.071Z,9.90
2019-03-31T07:00:21.437Z,10.00
2019-03-31T07:00:56.187Z,10.00
2019-03-31T07:01:30.703Z,10.00
2019-03-31T07:02:05.288Z,10.00
2019-03-31T07:02:39.880Z,10.00
2019-03-31T07:03:14.492Z,10.00
2019-03-31T07:03:49.302Z,10.00
2019-03-31T07:04:23.922Z,10.10
2019-03-31T07:05:01.338Z,10.00
2019-03-31T07:05:34.781Z,10.00
2019-03-31T07:06:09.398Z,10.00
2019-03-31T07:06:43.929Z,10.10
2019-03-31T07:07:18.517Z,10.10
2019-03-31T07:07:53.353Z,10.10
2019-03-31T07:08:27.939Z,10.10
2019-03-31T07:09:02.597Z,10.10
2019-03-31T07:09:37.093Z,10.10
2019-03-31T07:10:11.741Z,10.10
2019-03-31T07:10:46.330Z,10.10
2019-03-31T07:11:20.934Z,10.10
2019-03-31T07:11:56.798Z,10.20
2019-03-31T07:12:31.353Z,10.20
2019-03-31T07:13:05.930Z,10.20
2019-03-31T07:13:40.433Z,10.20
2019-03-31T07:14:14.999Z,10.20
2019-03-31T07:14:49.509Z,10.20
2019-03-31T07:15:24.119Z,10.20
2019-03-31T07:15:58.690Z,10.20
2019-03-31T07:16:33.465Z,10.20
2019-03-31T07:17:07.980Z,10.20
2019-03-31T07:17:42.833Z,10.20
2019-03-31T07:18:17.352Z,10.20
2019-03-31T07:18:51.882Z,10.30
2019-03-31T07:19:26.433Z,10.30
2019-03-31T07:20:00.938Z,10.30
2019-03-31T07:20:35.445Z,10.40
2019-03-31T07:21:09.949Z,10.40
2019-03-31T07:21:44.870Z,10.40
2019-03-31T07:22:19.577Z,10.40
2019-03-31T07:22:54.090Z,10.50
2019-03-31T07:23:28.665Z,10.50
2019-03-31T07:24:03.166Z,10.50
2019-03-31T07:24:37.678Z,10.50
2019-03-31T07:25:14.383Z,10.50
2019-03-31T07:25:48.962Z,10.60
2019-03-31T07:26:23.485Z,10.60
2019-03-31T07:26:58.204Z,10.60
2019-03-31T07:27:32.825Z,10.60
2019-03-31T07:28:07.379Z,10.70
2019-03-31T07:28:41.963Z,10.70
2019-03-31T07:29:16.479Z,10.80
2019-03-31T07:29:50.984Z,10.80
2019-03-31T07:30:25.558Z,10.80
2019-03-31T07:31:00.095Z,10.80
2019-03-31T07:31:34.659Z,10.80
2019-03-31T07:32:10.269Z,10.80
2019-03-31T07:32:44.920Z,10.80
2019-03-31T07:33:19.434Z,10.80
2019-03-31T07:33:53.940Z,10.80
2019-03-31T07:34:28.463Z,10.80
2019-03-31T07:35:17.565Z,10.90
2019-03-31T07:35:39.681Z,10.90
2019-03-31T07:36:14.237Z,10.90
2019-03-31T07:36:48.744Z,10.90
2019-03-31T07:37:23.249Z,10.90
2019-03-31T07:37:57.770Z,10.90
2019-03-31T07:38:38.656Z,10.90
2019-03-31T07:39:08.694Z,11.00
2019-03-31T07:39:45.816Z,11.00
2019-03-31T07:40:21.847Z,11.00
2019-03-31T07:40:56.724Z,11.00
2019-03-31T07:41:31.920Z,11.00
2019-03-31T07:42:06.591Z,11.00
2019-03-31T07:42:41.263Z,11.00